createdAt,value
2019-05-22T10:14:15.791Z,15.57
2019-05-22T10:19:25.374Z,15.97
2019-05-22T10:24:30.982Z,18.53
2019-05-22T10:29:36.827Z,19.27
2019-05-22T10:34:43.251Z,20.63
2019-05-22T10:39:49.074Z,17.80
2019-05-22T10:44:55.795Z,18.97
2019-05-22T10:50:01.260Z,20.20
2019-05-22T10:55:08.252Z,19.70
2019-05-22T11:00:16.346Z,19.27
2019-05-22T11:05:23.294Z,22.13
2019-05-22T11:10:29.300Z,18.23
2019-05-22T11:15:36.552Z,18.80
2019-05-22T11:20:43.345Z,19.27
2019-05-22T11:25:53.235Z,19.90
2019-05-22T11:31:04.505Z,20.43
2019-05-22T11:36:12.031Z,19.67
2019-05-22T11:41:20.562Z,19.40
2019-05-22T11:46:26.116Z,19.70
2019-05-22T11:51:31.636Z,18.87
2019-05-22T11:56:46.563Z,20.33
2019-05-22T12:01:52.396Z,19.63
2019-05-22T12:06:57.948Z,19.53
2019-05-22T12:12:08.110Z,18.57
2019-05-22T12:17:16.523Z,19.13
2019-05-22T12:22:22.282Z,18.00
2019-05-22T12:27:27.604Z,17.33
2019-05-22T12:32:33.195Z,17.37
2019-05-22T12:37:38.984Z,17.03
2019-05-22T12:42:45.290Z,16.30
2019-05-22T12:47:55.899Z,16.53
2019-05-22T12:53:06.367Z,16.27
2019-05-22T12:58:11.761Z,16.43
2019-05-22T13:03:20.168Z,15.70
2019-05-22T13:08:27.473Z,15.80
2019-05-22T13:13:33.666Z,15.40
2019-05-22T13:18:44.253Z,14.03
2019-05-22T13:23:52.558Z,13.70
2019-05-22T13:28:58.585Z,14.10
2019-05-22T13:34:04.879Z,13.17
2019-05-22T13:39:11.915Z,12.30
2019-05-22T13:44:21.117Z,11.77
2019-05-22T13:49:32.823Z,11.73
2019-05-22T13:54:40.462Z,12.17
2019-05-22T13:59:46.423Z,11.83
2019-05-22T14:04:52.974Z,11.50
2019-05-22T14:09:59.760Z,11.13
2019-05-22T14:15:05.995Z,11.47
2019-05-22T14:20:12.218Z,10.53
2019-05-22T14:25:20.587Z,9.90
2019-05-22T14:30:28.113Z,10.57
2019-05-22T14:35:47.583Z,10.77
2019-05-22T14:40:44.360Z,11.87
2019-05-22T14:45:50.150Z,11.37
2019-05-22T14:50:56.694Z,12.37
2019-05-22T14:56:03.750Z,12.97
2019-05-22T15:01:09.879Z,12.50
2019-05-22T15:06:16.359Z,12.30
2019-05-22T15:11:22.420Z,12.67
2019-05-22T15:16:30.061Z,11.73
2019-05-22T15:21:36.259Z,12.20
2019-05-22T15:26:42.159Z,12.33
2019-05-22T15:31:48.439Z,13.33
2019-05-22T15:36:54.314Z,14.13
2019-05-22T15:42:09.272Z,15.77
2019-05-22T15:47:15.158Z,15.20
2019-05-22T15:52:23.976Z,15.43
2019-05-22T15:57:36.639Z,15.20
2019-05-22T16:02:44.512Z,16.13
2019-05-22T16:07:52.622Z,16.23
2019-05-22T16:13:00.186Z,16.00
2019-05-22T16:18:12.040Z,16.97
2019-05-22T16:23:16.332Z,17.60
2019-05-22T16:28:30.950Z,17.90
2019-05-22T16:33:35.877Z,18.10
2019-05-22T16:38:42.685Z,18.90
2019-05-22T16:43:50.656Z,19.10
2019-05-22T16:48:57.784Z,19.63
2019-05-22T16:54:09.687Z,18.07
2019-05-22T16:59:16.757Z,16.83
2019-05-22T17:04:22.633Z,18.53
2019-05-22T17:09:28.489Z,18.33
2019-05-22T17:14:40.415Z,19.17
2019-05-22T17:19:49.067Z,18.50
2019-05-22T17:24:54.918Z,18.63
2019-05-22T17:30:02.382Z,17.73
2019-05-22T17:35:10.998Z,16.97
2019-05-22T17:40:20.823Z,17.20
2019-05-22T17:45:31.300Z,18.17
2019-05-22T17:50:37.394Z,18.10
2019-05-22T17:55:42.814Z,18.00
2019-05-22T18:00:51.444Z,17.73
2019-05-22T18:05:57.273Z,17.07
2019-05-22T18:11:09.148Z,17.90
2019-05-22T18:16:16.895Z,17.30
2019-05-22T18:21:24.130Z,17.13
2019-05-22T18:26:30.734Z,17.93
2019-05-22T18:31:36.590Z,18.03
2019-05-22T18:36:43.104Z,19.00
2019-05-22T18:41:48.520Z,19.40
2019-05-22T18:46:53.832Z,18.00
2019-05-22T18:52:00.922Z,19.10
2019-05-22T18:57:06.797Z,18.13
2019-05-22T19:02:13.568Z,19.77
2019-05-22T19:07:18.872Z,19.83
2019-05-22T19:12:24.806Z,20.60
2019-05-22T19:17:30.885Z,20.70
2019-05-22T19:22:36.183Z,21.87
2019-05-22T19:27:42.075Z,21.17
2019-05-22T19:32:47.534Z,21.60
2019-05-22T19:37:53.833Z,22.73
2019-05-22T19:42:59.146Z,22.07
2019-05-22T19:48:05.812Z,21.87
2019-05-22T19:53:18.930Z,21.60
2019-05-22T19:58:22.004Z,21.10
2019-05-22T20:03:28.615Z,22.03
2019-05-22T20:08:36.341Z,22.47
2019-05-22T20:13:41.216Z,20.93
2019-05-22T20:18:47.327Z,21.77
2019-05-22T20:23:54.080Z,22.20
2019-05-22T20:29:00.289Z,24.00
2019-05-22T20:34:06.289Z,22.90
2019-05-22T20:39:13.971Z,22.73
2019-05-22T20:44:20.315Z,22.03
2019-05-22T20:49:26.563Z,21.63
2019-05-22T20:54:32.752Z,21.57
2019-05-22T20:59:38.975Z,21.50
2019-05-22T21:04:45.789Z,20.97
2019-05-22T21:09:52.318Z,20.27
2019-05-22T21:14:59.388Z,21.27
2019-05-22T21:20:06.123Z,18.57
2019-05-22T21:25:12.431Z,18.17
2019-05-22T21:30:19.428Z,19.20
2019-05-22T21:35:24.950Z,17.60
2019-05-22T21:40:30.669Z,17.40
2019-05-22T21:45:36.759Z,16.50
2019-05-22T21:50:42.291Z,17.23
2019-05-22T21:56:03.375Z,16.20
2019-05-22T22:01:26.432Z,16.30
2019-05-22T22:06:33.356Z,15.97
2019-05-22T22:11:39.748Z,15.83
2019-05-22T22:16:46.968Z,15.30
2019-05-22T22:21:52.603Z,16.03
2019-05-22T22:26:59.007Z,16.40
2019-05-22T22:32:06.234Z,14.57
2019-05-22T22:37:11.947Z,14.17
2019-05-22T22:42:19.277Z,14.60
2019-05-22T22:47:37.712Z,14.87
2019-05-22T22:52:45.095Z,14.43
2019-05-22T22:57:52.212Z,14.83
2019-05-22T23:02:59.930Z,14.37
2019-05-22T23:08:06.301Z,14.63
2019-05-22T23:13:12.117Z,14.20
2019-05-22T23:18:49.839Z,14.10
2019-05-22T23:23:53.694Z,13.53
2019-05-22T23:28:59.071Z,13.73
2019-05-22T23:34:05.648Z,14.77
2019-05-22T23:39:12.924Z,14.67
2019-05-22T23:44:23.518Z,13.83
2019-05-22T23:49:30.252Z,14.63
2019-05-22T23:54:36.324Z,13.93
2019-05-22T23:59:44.802Z,12.93
